createdAt,value
2018-08-19T00:01:45.684Z,21.30
2018-08-19T00:04:13.980Z,21.20
2018-08-19T00:06:42.385Z,21.20
2018-08-19T00:09:12.652Z,21.20
2018-08-19T00:11:41.456Z,21.20
2018-08-19T00:14:23.955Z,21.10
2018-08-19T00:16:51.879Z,21.10
2018-08-19T00:19:19.551Z,21.10
2018-08-19T00:21:47.310Z,21.10
2018-08-19T00:24:14.922Z,21.10
2018-08-19T00:26:42.562Z,21.10
2018-08-19T00:29:10.438Z,21.00
2018-08-19T00:31:38.219Z,21.00
2018-08-19T00:34:06.058Z,21.00
2018-08-19T00:36:34.814Z,20.90
2018-08-19T00:39:02.894Z,20.90
2018-08-19T00:41:30.693Z,20.80
2018-08-19T00:43:58.480Z,22.30
2018-08-19T00:46:28.058Z,20.70
2018-08-19T00:48:56.083Z,20.70
2018-08-19T00:51:23.751Z,20.60
2018-08-19T00:53:51.502Z,20.60
2018-08-19T00:56:19.142Z,20.60
2018-08-19T00:58:46.811Z,20.50
2018-08-19T01:01:28.903Z,20.50
2018-08-19T01:03:57.206Z,20.50
2018-08-19T01:06:24.938Z,20.40
2018-08-19T01:08:52.650Z,20.30
2018-08-19T01:11:26.424Z,20.20
2018-08-19T01:13:54.102Z,20.20
2018-08-19T01:16:22.115Z,20.30
2018-08-19T01:18:54.348Z,20.10
2018-08-19T01:21:21.998Z,20.10
2018-08-19T01:23:49.631Z,20.10
2018-08-19T01:26:17.311Z,20.00
2018-08-19T01:28:44.998Z,20.10
2018-08-19T01:31:12.721Z,20.00
2018-08-19T01:33:40.392Z,20.00
2018-08-19T01:36:08.079Z,19.90
2018-08-19T01:38:35.695Z,19.90
2018-08-19T01:41:03.367Z,19.90
2018-08-19T01:43:30.955Z,19.90
2018-08-19T01:45:58.886Z,19.80
2018-08-19T01:48:26.975Z,19.90
2018-08-19T01:50:54.619Z,19.80
2018-08-19T01:53:22.203Z,19.80
2018-08-19T01:55:49.843Z,19.80
2018-08-19T01:58:17.496Z,19.70
2018-08-19T02:00:45.134Z,19.60
2018-08-19T02:03:12.847Z,19.60
2018-08-19T02:05:40.547Z,19.60
2018-08-19T02:08:08.211Z,19.50
2018-08-19T02:10:35.910Z,19.50
2018-08-19T02:13:03.687Z,19.50
2018-08-19T02:15:32.073Z,19.50
2018-08-19T02:18:04.683Z,19.50
2018-08-19T02:20:34.207Z,19.40
2018-08-19T02:23:02.917Z,19.40
2018-08-19T02:25:39.331Z,19.30
2018-08-19T02:28:08.027Z,19.40
2018-08-19T02:30:40.397Z,19.30
2018-08-19T02:33:08.375Z,19.50
2018-08-19T02:35:36.020Z,19.30
2018-08-19T02:38:03.671Z,19.40
2018-08-19T02:40:32.375Z,19.30
2018-08-19T02:43:00.299Z,19.30
2018-08-19T02:45:28.067Z,19.30
2018-08-19T02:47:55.753Z,19.30
2018-08-19T02:50:23.494Z,19.30
2018-08-19T02:52:51.166Z,19.20
2018-08-19T02:55:18.791Z,19.20
2018-08-19T02:57:46.430Z,19.20
2018-08-19T03:00:14.190Z,19.20
2018-08-19T03:02:42.391Z,19.30
2018-08-19T03:05:11.344Z,19.20
2018-08-19T03:07:39.047Z,19.20
2018-08-19T03:10:08.778Z,19.30
2018-08-19T03:12:36.546Z,19.30
2018-08-19T03:15:05.592Z,19.20
2018-08-19T03:17:33.275Z,19.20
2018-08-19T03:20:01.143Z,19.20
2018-08-19T03:22:29.916Z,19.20
2018-08-19T03:25:00.228Z,19.20
2018-08-19T03:27:27.889Z,19.20
2018-08-19T03:29:57.664Z,19.20
2018-08-19T03:32:25.524Z,19.30
2018-08-19T03:35:18.922Z,19.20
2018-08-19T03:37:47.964Z,19.30
2018-08-19T03:40:15.595Z,19.30
2018-08-19T03:42:43.206Z,19.30
2018-08-19T03:45:17.190Z,19.30
2018-08-19T03:47:45.002Z,19.30
2018-08-19T03:50:18.214Z,19.40
2018-08-19T03:52:45.834Z,19.40
2018-08-19T03:55:34.166Z,19.40
2018-08-19T03:58:04.790Z,19.40
2018-08-19T04:00:33.723Z,19.40
2018-08-19T04:03:04.622Z,19.50
2018-08-19T04:05:42.482Z,19.50
2018-08-19T04:08:11.365Z,19.50
2018-08-19T04:10:40.507Z,19.50
2018-08-19T04:13:24.039Z,19.40
2018-08-19T04:15:51.850Z,19.40
2018-08-19T04:18:22.435Z,19.40
2018-08-19T04:20:50.134Z,19.40
2018-08-19T04:23:17.780Z,19.50
2018-08-19T04:25:45.398Z,19.40
2018-08-19T04:28:17.179Z,19.50
2018-08-19T04:30:44.809Z,19.50
2018-08-19T04:33:12.513Z,19.50
2018-08-19T04:35:40.131Z,19.50
2018-08-19T04:38:07.788Z,21.50
2018-08-19T04:40:35.394Z,20.00
2018-08-19T04:43:03.099Z,20.20
2018-08-19T04:45:30.791Z,20.20
2018-08-19T04:47:58.421Z,20.20
2018-08-19T04:50:26.090Z,20.20
2018-08-19T04:52:53.709Z,20.40
2018-08-19T04:55:21.428Z,20.50
2018-08-19T04:57:49.087Z,20.50
2018-08-19T05:00:16.726Z,20.50
2018-08-19T05:02:44.361Z,20.60
2018-08-19T05:05:12.028Z,20.40
2018-08-19T05:07:39.696Z,20.50
2018-08-19T05:10:07.402Z,20.70
2018-08-19T05:12:35.034Z,20.70
2018-08-19T05:15:02.750Z,20.80
2018-08-19T05:17:30.410Z,20.50
2018-08-19T05:20:13.005Z,20.50
2018-08-19T05:22:40.746Z,20.50
2018-08-19T05:25:08.434Z,20.50
2018-08-19T05:27:36.059Z,20.70
2018-08-19T05:30:04.679Z,21.00
2018-08-19T05:32:32.311Z,21.50
2018-08-19T05:34:59.971Z,21.90
2018-08-19T05:37:27.619Z,22.30
2018-08-19T05:39:59.163Z,22.40
2018-08-19T05:42:26.925Z,22.70
2018-08-19T05:44:54.641Z,22.80
2018-08-19T05:47:22.351Z,23.90
2018-08-19T05:49:50.372Z,25.20
2018-08-19T05:52:21.773Z,25.10
2018-08-19T05:55:06.858Z,26.50
2018-08-19T05:57:34.719Z,26.50
2018-08-19T06:00:07.950Z,27.10
2018-08-19T06:02:41.141Z,27.30
2018-08-19T06:05:08.897Z,27.90
2018-08-19T06:07:36.692Z,28.60
2018-08-19T06:10:04.519Z,29.30
2018-08-19T06:12:32.167Z,30.30
2018-08-19T06:15:00.738Z,31.50
2018-08-19T06:17:28.492Z,32.50
2018-08-19T06:19:56.207Z,33.70
2018-08-19T06:22:30.331Z,34.30
2018-08-19T06:24:58.058Z,34.70
2018-08-19T06:27:30.547Z,35.10
2018-08-19T06:29:58.206Z,35.40
2018-08-19T06:32:30.521Z,34.20
2018-08-19T06:34:58.300Z,33.60
2018-08-19T06:37:25.814Z,34.10
2018-08-19T06:39:53.454Z,35.10
2018-08-19T06:42:21.758Z,35.70
2018-08-19T06:44:49.387Z,35.30
2018-08-19T06:47:17.006Z,35.90
2018-08-19T06:49:50.402Z,36.60
2018-08-19T06:52:18.164Z,37.10
2018-08-19T06:54:45.822Z,36.80
2018-08-19T06:57:13.505Z,37.70
2018-08-19T06:59:41.174Z,37.90
2018-08-19T07:02:08.950Z,38.40
2018-08-19T07:04:40.789Z,37.40
2018-08-19T07:07:10.425Z,35.90
2018-08-19T07:09:38.166Z,36.30
2018-08-19T07:12:18.266Z,37.80
2018-08-19T07:14:46.373Z,39.00
2018-08-19T07:17:14.493Z,39.30
2018-08-19T07:19:42.229Z,39.30
2018-08-19T07:22:13.347Z,39.90
2018-08-19T07:24:41.042Z,39.70
2018-08-19T07:27:09.521Z,39.00
2018-08-19T07:29:37.238Z,38.90
2018-08-19T07:32:05.366Z,39.20
2018-08-19T07:34:33.018Z,39.30
2018-08-19T07:37:00.972Z,40.10
2018-08-19T07:39:28.528Z,40.20
2018-08-19T07:41:56.241Z,40.50
2018-08-19T07:44:23.986Z,40.50
2018-08-19T07:46:51.614Z,40.30
2018-08-19T07:49:19.432Z,41.00
2018-08-19T07:51:47.052Z,41.00
2018-08-19T07:54:14.744Z,40.60
2018-08-19T07:56:42.375Z,40.40
2018-08-19T07:59:11.481Z,41.00
2018-08-19T08:01:39.740Z,39.10
2018-08-19T08:04:07.779Z,37.90
2018-08-19T08:06:35.955Z,36.90
2018-08-19T08:09:05.918Z,35.50
2018-08-19T08:11:33.768Z,34.60
2018-08-19T08:14:01.645Z,33.90
2018-08-19T08:16:29.291Z,33.50
2018-08-19T08:18:57.071Z,33.20
2018-08-19T08:21:28.107Z,33.10
2018-08-19T08:23:55.713Z,32.90
2018-08-19T08:26:23.615Z,32.70
2018-08-19T08:28:56.778Z,32.50
2018-08-19T08:31:24.433Z,32.10
2018-08-19T08:33:52.144Z,31.80
2018-08-19T08:36:19.775Z,31.60
2018-08-19T08:38:47.450Z,31.20
2018-08-19T08:41:15.072Z,30.60
2018-08-19T08:43:42.756Z,30.60
2018-08-19T08:46:10.407Z,30.50
2018-08-19T08:48:38.027Z,30.30
2018-08-19T08:51:05.704Z,30.30
2018-08-19T08:53:37.186Z,30.10
2018-08-19T08:56:05.383Z,29.90
2018-08-19T08:58:33.526Z,30.50
2018-08-19T09:01:01.138Z,30.20
2018-08-19T09:03:28.848Z,30.50
2018-08-19T09:05:56.750Z,30.60
2018-08-19T09:08:24.418Z,30.60
2018-08-19T09:10:52.071Z,30.60
2018-08-19T09:13:19.713Z,30.40
2018-08-19T09:15:47.463Z,30.80
2018-08-19T09:18:15.143Z,30.70
2018-08-19T09:20:42.775Z,30.60
2018-08-19T09:23:10.637Z,30.30
2018-08-19T09:25:38.277Z,29.80
2018-08-19T09:28:05.885Z,30.00
2018-08-19T09:30:36.342Z,29.90
2018-08-19T09:33:04.317Z,30.20
2018-08-19T09:35:33.073Z,30.10
2018-08-19T09:38:08.487Z,30.10
2018-08-19T09:40:36.539Z,30.30
2018-08-19T09:43:04.905Z,30.30
2018-08-19T09:45:32.666Z,30.30
2018-08-19T09:48:00.971Z,30.60
2018-08-19T09:50:28.486Z,30.70
2018-08-19T09:52:56.106Z,30.70
2018-08-19T09:55:29.271Z,30.60
2018-08-19T09:57:57.111Z,27.70
2018-08-19T10:00:26.834Z,29.80
2018-08-19T10:02:54.466Z,28.20
2018-08-19T10:05:24.450Z,28.40
2018-08-19T10:07:53.785Z,29.00
2018-08-19T10:10:22.266Z,29.00
2018-08-19T10:12:50.031Z,29.30
2018-08-19T10:15:17.662Z,29.60
2018-08-19T10:17:45.355Z,29.60
2018-08-19T10:20:13.112Z,29.50
2018-08-19T10:22:42.018Z,28.00
2018-08-19T10:25:15.231Z,28.40
2018-08-19T10:27:43.780Z,28.10
2018-08-19T10:30:11.452Z,28.00
2018-08-19T10:32:39.150Z,27.50
2018-08-19T10:35:12.534Z,27.60
2018-08-19T10:37:40.311Z,27.70
2018-08-19T10:40:08.047Z,27.20
2018-08-19T10:42:35.722Z,26.80
2018-08-19T10:45:09.315Z,27.30
2018-08-19T10:47:36.924Z,28.30
2018-08-19T10:50:06.047Z,28.60
2018-08-19T10:52:38.438Z,28.80
2018-08-19T10:55:08.658Z,28.90
2018-08-19T10:57:36.358Z,28.80
2018-08-19T11:00:10.395Z,28.90
2018-08-19T11:02:38.095Z,28.90
2018-08-19T11:05:05.754Z,29.10
2018-08-19T11:07:33.443Z,28.90
2018-08-19T11:10:22.446Z,29.00
2018-08-19T11:12:53.382Z,28.70
2018-08-19T11:15:29.182Z,29.00
2018-08-19T11:17:57.575Z,28.90
2018-08-19T11:20:30.911Z,28.60
2018-08-19T11:23:04.679Z,30.10
2018-08-19T11:25:32.351Z,28.40
2018-08-19T11:28:00.296Z,28.30
2018-08-19T11:30:28.156Z,28.40
2018-08-19T11:32:55.942Z,28.40
2018-08-19T11:35:27.142Z,28.30
2018-08-19T11:37:59.739Z,28.30
2018-08-19T11:40:28.155Z,28.50
2018-08-19T11:42:56.245Z,28.30
2018-08-19T11:45:23.949Z,28.20
2018-08-19T11:47:56.454Z,28.30
2018-08-19T11:50:24.089Z,28.30
2018-08-19T11:52:56.364Z,28.30
2018-08-19T11:55:24.008Z,28.10
2018-08-19T11:57:51.620Z,28.10
2018-08-19T12:00:20.522Z,29.80
2018-08-19T12:02:48.252Z,28.00
2018-08-19T12:05:16.115Z,27.90
2018-08-19T12:07:46.972Z,28.00
2018-08-19T12:10:14.746Z,28.20
2018-08-19T12:12:47.643Z,28.40
2018-08-19T12:15:16.784Z,28.20
2018-08-19T12:17:44.535Z,28.30
2018-08-19T12:20:12.279Z,28.40
2018-08-19T12:22:42.476Z,28.50
2018-08-19T12:25:10.414Z,28.50
2018-08-19T12:27:38.180Z,28.50
2018-08-19T12:30:14.491Z,28.50
2018-08-19T12:32:45.645Z,28.50
2018-08-19T12:35:15.439Z,28.40
2018-08-19T12:37:43.867Z,28.50
2018-08-19T12:40:13.028Z,28.50
2018-08-19T12:42:47.137Z,28.40
2018-08-19T12:45:15.723Z,28.40
2018-08-19T12:47:47.429Z,28.20
2018-08-19T12:50:16.118Z,28.30
2018-08-19T12:52:45.762Z,28.40
2018-08-19T12:55:16.563Z,28.40
2018-08-19T12:57:48.730Z,28.40
2018-08-19T13:00:25.060Z,28.50
2018-08-19T13:02:54.385Z,28.40
2018-08-19T13:05:25.708Z,28.60
2018-08-19T13:07:54.191Z,28.60
2018-08-19T13:10:22.271Z,28.60
2018-08-19T13:12:57.226Z,28.40
2018-08-19T13:15:27.789Z,28.50
2018-08-19T13:17:55.508Z,28.20
2018-08-19T13:20:23.146Z,28.40
2018-08-19T13:22:56.471Z,28.70
2018-08-19T13:25:24.527Z,28.80
2018-08-19T13:27:52.162Z,28.90
2018-08-19T13:30:20.451Z,28.90
2018-08-19T13:32:48.666Z,28.90
2018-08-19T13:35:16.303Z,29.00
2018-08-19T13:37:43.962Z,29.00
2018-08-19T13:40:12.440Z,29.00
2018-08-19T13:42:40.302Z,28.90
2018-08-19T13:45:13.591Z,28.90
2018-08-19T13:47:42.218Z,28.90
2018-08-19T13:50:09.974Z,29.00
2018-08-19T13:52:38.062Z,29.10
2018-08-19T13:55:08.295Z,29.10
2018-08-19T13:57:35.917Z,29.30
2018-08-19T14:00:05.110Z,29.30
2018-08-19T14:02:32.751Z,29.30
2018-08-19T14:05:00.391Z,29.30
2018-08-19T14:07:28.030Z,29.40
2018-08-19T14:09:55.658Z,29.40
2018-08-19T14:12:23.323Z,29.30
2018-08-19T14:14:50.978Z,29.10
2018-08-19T14:17:18.586Z,29.00
2018-08-19T14:19:46.223Z,28.90
2018-08-19T14:22:13.851Z,28.90
2018-08-19T14:24:41.475Z,28.90
2018-08-19T14:27:09.175Z,28.90
2018-08-19T14:29:37.382Z,29.00
2018-08-19T14:32:05.214Z,29.10
2018-08-19T14:34:32.824Z,29.10
2018-08-19T14:37:00.515Z,29.00
2018-08-19T14:39:28.147Z,28.90
2018-08-19T14:41:55.782Z,29.00
2018-08-19T14:44:23.523Z,29.00
2018-08-19T14:46:51.975Z,29.00
2018-08-19T14:49:19.808Z,28.80
2018-08-19T14:51:55.650Z,28.80
2018-08-19T14:54:23.389Z,28.80
2018-08-19T14:56:51.003Z,28.90
2018-08-19T14:59:18.655Z,28.90
2018-08-19T15:01:46.295Z,28.90
2018-08-19T15:04:15.419Z,28.90
2018-08-19T15:06:44.179Z,29.10
2018-08-19T15:09:24.591Z,29.00
2018-08-19T15:11:52.689Z,28.80
2018-08-19T15:14:21.042Z,28.50
2018-08-19T15:16:53.053Z,28.40
2018-08-19T15:19:20.734Z,28.40
2018-08-19T15:21:50.315Z,28.40
2018-08-19T15:24:17.963Z,28.30
2018-08-19T15:26:45.878Z,28.20
2018-08-19T15:29:21.177Z,28.20
2018-08-19T15:31:49.090Z,28.30
2018-08-19T15:34:17.008Z,28.20
2018-08-19T15:36:44.679Z,28.20
2018-08-19T15:39:12.287Z,28.10
2018-08-19T15:41:40.006Z,28.20
2018-08-19T15:44:07.701Z,28.30
2018-08-19T15:46:35.316Z,28.40
2018-08-19T15:49:06.006Z,28.20
2018-08-19T15:51:33.627Z,28.40
2018-08-19T15:54:01.309Z,28.40
2018-08-19T15:56:29.042Z,28.40
2018-08-19T15:58:56.745Z,28.50
2018-08-19T16:01:31.907Z,28.30
2018-08-19T16:04:05.078Z,28.40
2018-08-19T16:06:33.248Z,28.30
2018-08-19T16:09:00.874Z,28.30
2018-08-19T16:11:28.512Z,28.30
2018-08-19T16:13:56.141Z,28.30
2018-08-19T16:16:24.504Z,28.40
2018-08-19T16:18:53.553Z,28.40
2018-08-19T16:21:21.236Z,27.30
2018-08-19T16:23:48.869Z,28.50
2018-08-19T16:26:16.524Z,28.40
2018-08-19T16:28:44.388Z,28.20
2018-08-19T16:31:12.044Z,28.20
2018-08-19T16:33:39.703Z,28.10
2018-08-19T16:36:07.414Z,28.00
2018-08-19T16:38:35.067Z,28.00
2018-08-19T16:41:02.891Z,27.90
2018-08-19T16:43:31.842Z,28.00
2018-08-19T16:45:59.777Z,27.90
2018-08-19T16:48:27.911Z,27.90
2018-08-19T16:50:55.691Z,27.90
2018-08-19T16:53:23.451Z,28.00
2018-08-19T16:55:51.153Z,28.00
2018-08-19T16:58:18.947Z,28.00
2018-08-19T17:00:46.706Z,28.10
2018-08-19T17:03:26.415Z,28.10
2018-08-19T17:05:54.735Z,28.20
2018-08-19T17:08:22.628Z,28.20
2018-08-19T17:10:50.365Z,28.10
2018-08-19T17:13:18.108Z,28.10
2018-08-19T17:15:45.724Z,28.10
2018-08-19T17:18:13.494Z,28.00
2018-08-19T17:20:41.419Z,27.90
2018-08-19T17:23:09.083Z,27.90
2018-08-19T17:25:36.795Z,27.90
2018-08-19T17:28:36.159Z,27.90
2018-08-19T17:31:03.841Z,27.90
2018-08-19T17:33:31.530Z,27.80
2018-08-19T17:35:59.169Z,27.70
2018-08-19T17:38:31.247Z,27.70
2018-08-19T17:40:59.319Z,27.70
2018-08-19T17:43:31.458Z,27.60
2018-08-19T17:46:04.582Z,27.50
2018-08-19T17:48:32.323Z,27.40
2018-08-19T17:50:59.951Z,27.30
2018-08-19T17:53:27.572Z,27.30
2018-08-19T17:55:55.237Z,27.30
2018-08-19T17:58:24.700Z,27.20
2018-08-19T18:00:52.342Z,27.10
2018-08-19T18:03:20.252Z,27.00
2018-08-19T18:05:47.955Z,26.90
2018-08-19T18:08:15.588Z,26.80
2018-08-19T18:10:47.965Z,26.80
2018-08-19T18:13:15.654Z,26.70
2018-08-19T18:15:43.283Z,26.60
2018-08-19T18:18:11.019Z,26.50
2018-08-19T18:20:39.729Z,26.50
2018-08-19T18:23:12.792Z,26.40
2018-08-19T18:25:41.315Z,26.30
2018-08-19T18:28:15.330Z,26.20
2018-08-19T18:30:42.994Z,26.20
2018-08-19T18:33:10.675Z,26.10
2018-08-19T18:35:38.294Z,26.00
2018-08-19T18:38:26.171Z,25.90
2018-08-19T18:40:53.603Z,25.80
2018-08-19T18:43:21.375Z,25.80
2018-08-19T18:45:49.028Z,25.70
2018-08-19T18:48:17.864Z,25.60
2018-08-19T18:50:45.607Z,25.50
2018-08-19T18:53:13.287Z,25.50
2018-08-19T18:55:40.992Z,25.40
2018-08-19T18:58:08.743Z,25.30
2018-08-19T19:00:40.674Z,25.20
2018-08-19T19:03:08.302Z,25.00
2018-08-19T19:05:41.182Z,24.90
2018-08-19T19:08:23.475Z,24.80
2018-08-19T19:10:57.414Z,24.60
2018-08-19T19:13:25.980Z,24.50
2018-08-19T19:15:53.651Z,24.60
2018-08-19T19:18:21.338Z,24.60
2018-08-19T19:20:58.296Z,24.60
2018-08-19T19:23:30.317Z,24.40
2018-08-19T19:25:58.443Z,24.30
2018-08-19T19:28:26.179Z,24.30
2018-08-19T19:31:06.162Z,24.30
2018-08-19T19:33:34.549Z,24.30
2018-08-19T19:36:07.821Z,24.30
2018-08-19T19:38:48.493Z,24.30
2018-08-19T19:41:20.027Z,24.30
2018-08-19T19:43:47.717Z,24.30
2018-08-19T19:46:15.447Z,24.20
2018-08-19T19:48:43.119Z,24.20
2018-08-19T19:51:10.819Z,24.10
2018-08-19T19:53:38.527Z,24.10
2018-08-19T19:56:11.019Z,24.10
2018-08-19T19:58:38.641Z,24.10
2018-08-19T20:01:06.334Z,23.90
2018-08-19T20:03:38.556Z,23.80
2018-08-19T20:06:06.178Z,23.70
2018-08-19T20:08:33.900Z,23.60
2018-08-19T20:11:01.519Z,23.50
2018-08-19T20:13:29.201Z,23.40
2018-08-19T20:15:56.797Z,23.40
2018-08-19T20:18:24.444Z,23.30
2018-08-19T20:20:52.137Z,23.30
2018-08-19T20:23:24.593Z,23.20
2018-08-19T20:25:53.047Z,23.20
2018-08-19T20:28:20.685Z,23.10
2018-08-19T20:30:48.337Z,23.10
2018-08-19T20:33:25.413Z,23.00
2018-08-19T20:35:54.029Z,23.00
2018-08-19T20:38:21.843Z,22.90
2018-08-19T20:40:49.478Z,22.90
2018-08-19T20:43:20.359Z,22.80
2018-08-19T20:45:48.080Z,22.80
2018-08-19T20:48:17.518Z,22.70
2018-08-19T20:50:45.802Z,22.70
2018-08-19T20:53:13.519Z,22.60
2018-08-19T20:55:41.184Z,22.50
2018-08-19T20:58:09.088Z,22.50
2018-08-19T21:00:36.830Z,22.40
2018-08-19T21:03:04.619Z,22.30
2018-08-19T21:05:32.295Z,22.30
2018-08-19T21:08:09.339Z,22.20
2018-08-19T21:10:38.652Z,22.10
2018-08-19T21:13:07.231Z,22.00
2018-08-19T21:15:37.497Z,22.00
2018-08-19T21:18:06.180Z,21.90
2018-08-19T21:20:34.263Z,21.80
2018-08-19T21:23:02.447Z,22.00
2018-08-19T21:25:30.165Z,22.10
2018-08-19T21:27:57.959Z,22.30
2018-08-19T21:30:25.817Z,22.20
2018-08-19T21:32:54.511Z,22.10
2018-08-19T21:35:22.179Z,22.10
2018-08-19T21:37:50.117Z,22.10
2018-08-19T21:40:25.364Z,22.00
2018-08-19T21:42:55.252Z,21.90
2018-08-19T21:45:23.066Z,21.90
2018-08-19T21:47:50.863Z,21.70
2018-08-19T21:50:18.610Z,21.60
2018-08-19T21:53:03.122Z,21.60
2018-08-19T21:55:48.643Z,21.60
2018-08-19T21:58:16.382Z,21.50
2018-08-19T22:00:47.684Z,21.40
2018-08-19T22:03:21.677Z,21.40
2018-08-19T22:05:50.757Z,21.40
2018-08-19T22:08:18.635Z,21.40
2018-08-19T22:10:47.396Z,21.30
2018-08-19T22:13:15.108Z,21.20
2018-08-19T22:15:43.793Z,21.20
2018-08-19T22:18:14.059Z,21.20
2018-08-19T22:20:52.919Z,21.20
2018-08-19T22:23:22.756Z,21.30
2018-08-19T22:25:50.491Z,21.30
2018-08-19T22:28:18.217Z,21.30
2018-08-19T22:30:45.999Z,21.30
2018-08-19T22:33:13.642Z,21.20
2018-08-19T22:35:41.342Z,21.10
2018-08-19T22:38:13.652Z,21.20
2018-08-19T22:40:41.360Z,21.10
2018-08-19T22:43:09.086Z,21.00
2018-08-19T22:45:37.011Z,21.00
2018-08-19T22:48:04.816Z,21.00
2018-08-19T22:50:32.652Z,21.00
2018-08-19T22:53:00.296Z,21.00
2018-08-19T22:55:28.033Z,20.90
2018-08-19T22:58:00.279Z,21.00
2018-08-19T23:00:28.217Z,20.90
2018-08-19T23:02:56.047Z,20.90
2018-08-19T23:05:23.938Z,20.90
2018-08-19T23:07:51.836Z,20.90
2018-08-19T23:10:19.731Z,20.80
2018-08-19T23:12:47.530Z,20.80
2018-08-19T23:15:26.453Z,20.70
2018-08-19T23:17:54.171Z,20.80
2018-08-19T23:20:21.863Z,20.70
2018-08-19T23:22:49.534Z,20.70
2018-08-19T23:25:17.311Z,20.70
2018-08-19T23:27:45.092Z,20.70
2018-08-19T23:30:12.959Z,20.70
2018-08-19T23:32:40.759Z,20.60
2018-08-19T23:35:08.453Z,20.60
2018-08-19T23:37:36.257Z,20.60
2018-08-19T23:40:03.988Z,20.60
2018-08-19T23:42:31.782Z,20.50
2018-08-19T23:44:59.516Z,20.40
2018-08-19T23:47:27.271Z,20.40
2018-08-19T23:49:55.055Z,20.40
2018-08-19T23:52:22.738Z,20.40
2018-08-19T23:54:50.339Z,20.40
2018-08-19T23:57:18.046Z,20.40
2018-08-19T23:59:45.879Z,20.40
